createdAt,value
2018-11-13T00:01:51.526Z,14.24
2018-11-13T00:05:59.003Z,14.22
2018-11-13T00:10:12.987Z,14.31
2018-11-13T00:14:20.441Z,14.21
2018-11-13T00:18:27.693Z,14.25
2018-11-13T00:22:35.090Z,14.19
2018-11-13T00:26:42.469Z,14.15
2018-11-13T00:30:49.851Z,14.16
2018-11-13T00:34:59.992Z,13.93
2018-11-13T00:39:12.828Z,14.04
2018-11-13T00:43:20.267Z,13.99
2018-11-13T00:47:30.485Z,13.88
2018-11-13T00:51:38.861Z,13.96
2018-11-13T00:55:47.167Z,13.95
2018-11-13T00:59:55.104Z,13.94
2018-11-13T01:04:02.508Z,13.93
2018-11-13T01:08:12.775Z,13.91
2018-11-13T01:12:23.235Z,13.92
2018-11-13T01:16:33.913Z,13.92
2018-11-13T01:20:43.480Z,13.93
2018-11-13T01:24:51.958Z,13.96
2018-11-13T01:29:04.418Z,13.98
2018-11-13T01:33:11.670Z,14.00
2018-11-13T01:37:18.778Z,13.90
2018-11-13T01:41:25.960Z,13.84
2018-11-13T01:45:33.489Z,13.74
2018-11-13T01:49:42.673Z,13.74
2018-11-13T01:53:50.227Z,13.74
2018-11-13T01:57:57.531Z,13.75
2018-11-13T02:02:04.922Z,13.66
2018-11-13T02:06:12.198Z,13.59
2018-11-13T02:10:19.704Z,13.55
2018-11-13T02:14:27.023Z,13.56
2018-11-13T02:18:34.346Z,13.62
2018-11-13T02:22:42.239Z,13.54
2018-11-13T02:26:49.603Z,13.57
2018-11-13T02:30:58.649Z,13.55
2018-11-13T02:35:04.646Z,13.58
2018-11-13T02:39:12.245Z,13.47
2018-11-13T02:43:19.656Z,13.43
2018-11-13T02:47:27.073Z,13.49
2018-11-13T02:51:34.809Z,13.45
2018-11-13T02:55:42.164Z,13.43
2018-11-13T02:59:50.611Z,13.47
2018-11-13T03:03:57.929Z,13.43
2018-11-13T03:08:05.587Z,13.42
2018-11-13T03:12:12.836Z,13.37
2018-11-13T03:16:22.825Z,13.42
2018-11-13T03:20:30.141Z,13.37
2018-11-13T03:24:37.459Z,13.28
2018-11-13T03:28:44.682Z,13.24
2018-11-13T03:32:52.095Z,13.18
2018-11-13T03:36:59.431Z,13.11
2018-11-13T03:41:06.703Z,13.05
2018-11-13T03:45:14.445Z,12.98
2018-11-13T03:49:21.547Z,12.94
2018-11-13T03:53:31.780Z,12.88
2018-11-13T03:57:39.452Z,12.84
2018-11-13T04:01:46.677Z,12.89
2018-11-13T04:05:54.111Z,12.72
2018-11-13T04:10:01.270Z,12.67
2018-11-13T04:14:08.714Z,12.68
2018-11-13T04:18:15.930Z,12.68
2018-11-13T04:22:23.207Z,12.62
2018-11-13T04:26:30.360Z,12.62
2018-11-13T04:30:37.713Z,12.58
2018-11-13T04:34:44.912Z,12.58
2018-11-13T04:38:52.629Z,12.52
2018-11-13T04:42:59.926Z,12.52
2018-11-13T04:47:08.071Z,12.50
2018-11-13T04:51:15.331Z,12.50
2018-11-13T04:55:22.817Z,12.56
2018-11-13T04:59:29.897Z,12.56
2018-11-13T05:03:37.146Z,12.58
2018-11-13T05:07:51.670Z,12.54
2018-11-13T05:11:58.884Z,12.50
2018-11-13T05:16:06.546Z,12.54
2018-11-13T05:20:14.781Z,12.51
2018-11-13T05:24:21.978Z,12.43
2018-11-13T05:28:29.315Z,12.44
2018-11-13T05:32:38.325Z,12.42
2018-11-13T05:40:50.990Z,12.42
2018-11-13T05:44:58.196Z,12.34
2018-11-13T05:49:05.542Z,12.30
2018-11-13T05:53:12.677Z,12.36
2018-11-13T05:57:19.882Z,12.26
2018-11-13T06:01:27.222Z,12.32
2018-11-13T06:05:34.653Z,12.22
2018-11-13T06:09:42.029Z,12.22
2018-11-13T06:13:50.462Z,12.20
2018-11-13T06:17:58.146Z,12.30
2018-11-13T06:22:05.621Z,12.23
2018-11-13T06:26:15.581Z,12.23
2018-11-13T06:30:24.419Z,12.19
2018-11-13T06:34:31.846Z,12.15
2018-11-13T06:38:38.967Z,12.14
2018-11-13T06:42:46.291Z,12.11
2018-11-13T06:46:53.493Z,12.11
2018-11-13T06:51:00.845Z,12.12
2018-11-13T06:55:28.043Z,12.07
2018-11-13T06:59:35.382Z,12.07
2018-11-13T07:03:46.540Z,12.04
2018-11-13T07:07:53.646Z,12.04
2018-11-13T07:12:01.205Z,12.07
2018-11-13T07:16:08.898Z,12.03
2018-11-13T07:20:16.982Z,12.11
2018-11-13T07:24:24.316Z,12.08
2018-11-13T07:28:36.563Z,12.21
2018-11-13T07:32:43.910Z,12.06
2018-11-13T07:36:51.553Z,12.10
2018-11-13T07:40:58.806Z,12.16
2018-11-13T07:45:06.669Z,12.10
2018-11-13T07:49:13.866Z,12.10
2018-11-13T07:53:21.038Z,12.10
2018-11-13T07:57:28.499Z,12.11
2018-11-13T08:01:35.643Z,12.10
2018-11-13T08:05:42.885Z,12.12
2018-11-13T08:09:50.077Z,12.12
2018-11-13T08:13:57.345Z,12.10
2018-11-13T08:18:04.535Z,12.18
2018-11-13T08:22:11.829Z,12.15
2018-11-13T08:26:18.946Z,12.17
2018-11-13T08:30:36.828Z,12.30
2018-11-13T08:34:43.311Z,12.18
2018-11-13T08:38:50.747Z,12.18
2018-11-13T08:43:23.840Z,12.12
2018-11-13T08:47:47.203Z,12.06
2018-11-13T08:52:27.276Z,12.12
2018-11-13T08:56:35.756Z,12.05
2018-11-13T09:00:43.791Z,12.07
2018-11-13T09:04:51.177Z,11.99
2018-11-13T09:08:58.485Z,11.99
2018-11-13T09:13:06.254Z,11.96
2018-11-13T09:17:15.337Z,11.98
2018-11-13T09:21:22.463Z,11.87
2018-11-13T09:25:29.859Z,12.05
2018-11-13T09:29:37.135Z,12.06
2018-11-13T09:33:44.361Z,12.05
2018-11-13T09:38:12.916Z,12.11
2018-11-13T09:42:20.283Z,12.08
2018-11-13T09:46:27.694Z,12.09
2018-11-13T09:50:34.976Z,12.09
2018-11-13T09:54:42.226Z,12.09
2018-11-13T09:58:49.566Z,12.15
2018-11-13T10:03:01.180Z,12.20
2018-11-13T10:07:08.280Z,12.06
2018-11-13T10:11:15.356Z,12.50
2018-11-13T10:15:24.018Z,12.36
2018-11-13T10:19:31.264Z,12.39
2018-11-13T10:23:38.815Z,12.32
2018-11-13T10:27:47.178Z,12.31
2018-11-13T10:31:54.364Z,12.19
2018-11-13T10:36:01.547Z,12.12
2018-11-13T10:40:11.492Z,12.10
2018-11-13T10:44:18.781Z,12.22
2018-11-13T10:48:26.223Z,12.43
2018-11-13T10:52:33.456Z,12.57
2018-11-13T10:56:40.914Z,12.57
2018-11-13T11:01:19.184Z,12.75
2018-11-13T11:05:27.853Z,12.75
2018-11-13T11:09:35.078Z,13.02
2018-11-13T11:13:42.680Z,13.14
2018-11-13T11:17:49.923Z,13.25
2018-11-13T11:21:57.273Z,13.45
2018-11-13T11:26:04.621Z,13.46
2018-11-13T11:30:14.863Z,13.26
2018-11-13T11:34:22.212Z,13.37
2018-11-13T11:38:29.667Z,13.42
2018-11-13T11:42:37.203Z,13.59
2018-11-13T11:46:44.385Z,13.77
2018-11-13T11:50:51.640Z,13.77
2018-11-13T11:54:59.177Z,14.06
2018-11-13T11:59:06.704Z,13.96
2018-11-13T12:03:14.178Z,13.82
2018-11-13T12:07:21.666Z,13.86
2018-11-13T12:11:28.972Z,14.20
2018-11-13T12:15:36.236Z,15.11
2018-11-13T12:19:43.430Z,15.88
2018-11-13T12:23:50.879Z,16.55
2018-11-13T12:27:58.122Z,16.84
2018-11-13T12:32:05.525Z,16.60
2018-11-13T12:36:12.955Z,16.46
2018-11-13T12:40:21.915Z,17.61
2018-11-13T12:44:29.051Z,17.30
2018-11-13T12:52:44.129Z,17.19
2018-11-13T12:56:51.442Z,17.43
2018-11-13T13:00:58.719Z,17.51
2018-11-13T13:05:06.612Z,17.44
2018-11-13T13:09:13.832Z,16.09
2018-11-13T13:13:21.206Z,16.03
2018-11-13T13:17:28.801Z,15.63
2018-11-13T13:21:36.263Z,15.57
2018-11-13T13:25:43.724Z,15.34
2018-11-13T13:29:50.912Z,14.88
2018-11-13T13:33:58.361Z,14.93
2018-11-13T13:38:06.740Z,14.68
2018-11-13T13:42:14.487Z,14.73
2018-11-13T13:46:21.731Z,14.62
2018-11-13T13:50:29.043Z,14.35
2018-11-13T13:54:36.928Z,14.25
2018-11-13T13:58:44.482Z,14.06
2018-11-13T14:02:54.427Z,13.97
2018-11-13T14:06:59.868Z,13.93
2018-11-13T14:11:10.789Z,14.01
2018-11-13T14:15:19.951Z,14.08
2018-11-13T14:19:27.641Z,14.06
2018-11-13T14:23:35.186Z,14.11
2018-11-13T14:27:44.541Z,14.00
2018-11-13T14:31:58.472Z,14.05
2018-11-13T14:36:08.695Z,13.90
2018-11-13T14:40:50.319Z,14.01
2018-11-13T14:44:59.403Z,13.93
2018-11-13T14:49:26.265Z,13.86
2018-11-13T14:53:33.533Z,13.75
2018-11-13T14:57:40.832Z,13.75
2018-11-13T15:01:48.329Z,13.74
2018-11-13T15:05:55.714Z,13.73
2018-11-13T15:10:03.930Z,13.60
2018-11-13T15:14:11.091Z,13.54
2018-11-13T15:18:18.506Z,13.54
2018-11-13T15:22:26.192Z,13.48
2018-11-13T15:26:33.345Z,13.48
2018-11-13T15:30:47.227Z,13.37
2018-11-13T15:34:55.839Z,13.34
2018-11-13T15:39:05.601Z,13.32
2018-11-13T15:43:12.783Z,13.31
2018-11-13T15:47:20.286Z,13.31
2018-11-13T15:51:29.464Z,13.27
2018-11-13T15:55:39.585Z,13.08
2018-11-13T15:59:50.016Z,13.06
2018-11-13T16:03:58.239Z,13.01
2018-11-13T16:08:06.881Z,12.90
2018-11-13T16:12:14.070Z,12.90
2018-11-13T16:16:24.680Z,12.85
2018-11-13T16:20:32.318Z,12.73
2018-11-13T16:24:42.484Z,12.71
2018-11-13T16:28:49.723Z,12.76
2018-11-13T16:32:57.346Z,12.62
2018-11-13T16:37:04.834Z,12.61
2018-11-13T16:41:12.332Z,12.56
2018-11-13T16:45:21.042Z,12.51
2018-11-13T16:49:28.593Z,12.52
2018-11-13T16:53:55.289Z,12.45
2018-11-13T16:58:04.443Z,12.43
2018-11-13T17:02:12.005Z,12.43
2018-11-13T17:06:43.262Z,12.38
2018-11-13T17:10:56.430Z,12.26
2018-11-13T17:15:04.382Z,12.22
2018-11-13T17:19:18.803Z,12.13
2018-11-13T17:23:32.962Z,12.13
2018-11-13T17:28:17.579Z,12.15
2018-11-13T17:32:26.805Z,12.13
2018-11-13T17:36:34.498Z,12.07
2018-11-13T17:40:41.856Z,12.02
2018-11-13T17:44:49.059Z,11.94
2018-11-13T17:48:58.837Z,11.94
2018-11-13T17:53:07.158Z,11.79
2018-11-13T17:57:14.653Z,11.75
2018-11-13T18:01:21.922Z,11.66
2018-11-13T18:05:29.847Z,11.64
2018-11-13T18:09:37.146Z,11.61
2018-11-13T18:13:44.684Z,11.57
2018-11-13T18:17:52.646Z,11.57
2018-11-13T18:22:00.004Z,11.56
2018-11-13T18:26:08.881Z,11.56
2018-11-13T18:30:40.164Z,11.55
2018-11-13T18:34:53.987Z,11.49
2018-11-13T18:39:02.290Z,11.45
2018-11-13T18:43:10.112Z,11.39
2018-11-13T18:47:17.550Z,11.35
2018-11-13T18:51:24.752Z,11.50
2018-11-13T18:55:32.073Z,11.27
2018-11-13T18:59:39.289Z,11.17
2018-11-13T19:03:46.754Z,11.07
2018-11-13T19:07:54.187Z,11.07
2018-11-13T19:12:01.521Z,11.08
2018-11-13T19:16:11.353Z,11.00
2018-11-13T19:20:20.358Z,10.97
2018-11-13T19:24:27.721Z,10.82
2018-11-13T19:28:35.075Z,10.69
2018-11-13T19:32:42.595Z,10.73
2018-11-13T19:36:49.795Z,10.59
2018-11-13T19:40:57.064Z,10.57
2018-11-13T19:45:04.569Z,10.43
2018-11-13T19:49:12.287Z,10.36
2018-11-13T19:53:20.161Z,10.37
2018-11-13T19:57:28.338Z,10.25
2018-11-13T20:01:36.087Z,10.29
2018-11-13T20:05:58.068Z,10.16
2018-11-13T20:10:03.538Z,10.13
2018-11-13T20:14:18.899Z,9.99
2018-11-13T20:23:30.840Z,9.96
2018-11-13T20:27:53.448Z,9.79
2018-11-13T20:32:01.204Z,9.74
2018-11-13T20:36:08.760Z,9.75
2018-11-13T20:40:24.769Z,9.76
2018-11-13T20:44:38.454Z,9.68
2018-11-13T20:49:09.961Z,9.66
2018-11-13T20:53:59.876Z,9.64
2018-11-13T20:58:46.774Z,9.55
2018-11-13T21:03:19.175Z,9.53
2018-11-13T21:07:27.416Z,9.45
2018-11-13T21:11:35.137Z,9.51
2018-11-13T21:15:48.960Z,9.49
2018-11-13T21:20:15.324Z,9.45
2018-11-13T21:24:33.071Z,9.44
2018-11-13T21:28:40.615Z,9.38
2018-11-13T21:32:48.736Z,9.38
2018-11-13T21:36:55.988Z,9.35
2018-11-13T21:41:03.966Z,9.38
2018-11-13T21:45:12.744Z,9.23
2018-11-13T21:49:20.892Z,9.20
2018-11-13T21:53:28.355Z,9.23
2018-11-13T21:57:36.748Z,9.23
2018-11-13T22:01:43.975Z,9.19
2018-11-13T22:05:51.657Z,9.12
2018-11-13T22:09:59.372Z,9.08
2018-11-13T22:14:11.588Z,9.11
2018-11-13T22:18:17.067Z,8.98
2018-11-13T22:22:24.315Z,8.95
2018-11-13T22:26:42.538Z,8.92
2018-11-13T22:30:49.692Z,8.86
2018-11-13T22:34:56.943Z,8.82
2018-11-13T22:39:04.546Z,8.84
2018-11-13T22:43:11.709Z,8.77
2018-11-13T22:47:18.939Z,8.80
2018-11-13T22:51:26.215Z,8.76
2018-11-13T22:55:33.407Z,8.69
2018-11-13T22:59:40.640Z,8.68
2018-11-13T23:03:47.892Z,8.68
2018-11-13T23:07:55.297Z,8.67
2018-11-13T23:12:02.662Z,8.64
2018-11-13T23:16:09.864Z,8.64
2018-11-13T23:20:18.426Z,8.67
2018-11-13T23:24:25.613Z,8.66
2018-11-13T23:28:32.875Z,8.67
2018-11-13T23:32:40.238Z,8.62
2018-11-13T23:36:47.343Z,8.55
2018-11-13T23:40:54.600Z,8.57
2018-11-13T23:45:01.827Z,8.62
2018-11-13T23:49:09.130Z,8.53
2018-11-13T23:53:16.352Z,8.56
2018-11-13T23:57:23.691Z,8.46
